Mitchellville, South Carolina
Current Conditions -  °F | °C
As of 12:56 PM on Sunday 21 Dec 2014 (Local Time) from KNBC Reporting Station
Overcast Overcast  
Wind Chill: 45°   Ceiling: 3500
Heat Index: 49°   Visibility: 10mi
Dew Point: 44°   Wind: 10mph
Humidity: 83%   Direction: 30°NNE
Pressure: 30.17"   Gusts: NA
Location:  32.4773°N, 80.9264°W
Report Text: KNBC 211756Z AUTO 03009KT 10SM OVC035 09/07 A3017 RMK AO2 RAB21E38 SLP215 P0000 60000 T00940067 10100 20083 58018
Loading
Personal Weather Stations






























Interactive Weather Map New forecast layout! Learn more

10-Day Weather Forecast

Advertisements
Track Severe Weather on mobile